Time;durP1;ratioP1;P1;durP2;ratioP2;P2;SDS_P1;SDS_P2;PMS_P1;PMS_P2;Temp;Humidity;BMP_temperature;BMP_pressure;BME280_temperature;BME280_humidity;BME280_pressure;Samples;Min_cycle;Max_cycle;Signal;HPM_P1;HPM_P2
2021/05/05 00:01:52;;;;;;;14.73;3.08;;;6.90;99.90;;;;;;5017490;28;20596;-88
2021/05/05 00:04:19;;;;;;;4.03;1.95;;;6.90;99.90;;;;;;5017281;28;20201;-89
2021/05/05 00:06:46;;;;;;;7.75;4.18;;;6.90;99.90;;;;;;5015986;28;20189;-88
2021/05/05 00:09:13;;;;;;;3.33;1.90;;;6.90;99.90;;;;;;5015995;28;20194;-89
2021/05/05 00:11:41;;;;;;;4.50;3.30;;;6.80;99.90;;;;;;5017515;28;20188;-90
2021/05/05 00:14:09;;;;;;;6.20;2.80;;;6.90;99.90;;;;;;5015964;28;20560;-89
2021/05/05 00:16:37;;;;;;;5.93;2.33;;;6.90;99.90;;;;;;5015871;28;20197;-89
2021/05/05 00:19:04;;;;;;;5.82;4.10;;;6.80;99.90;;;;;;5016242;28;20177;-88
2021/05/05 00:21:31;;;;;;;4.60;2.35;;;6.90;99.90;;;;;;5026995;28;20228;-90
2021/05/05 00:23:58;;;;;;;3.83;2.40;;;6.90;99.90;;;;;;5016232;28;20305;-87
2021/05/05 00:26:26;;;;;;;6.30;1.75;;;6.90;99.90;;;;;;5014534;28;20193;-89
2021/05/05 00:28:55;;;;;;;4.75;2.30;;;6.90;99.90;;;;;;5017024;28;20182;-88
2021/05/05 00:31:22;;;;;;;4.55;2.05;;;6.80;99.90;;;;;;5023781;28;20193;-88
2021/05/05 00:33:51;;;;;;;4.13;2.25;;;6.70;99.90;;;;;;5028587;28;20272;-90
2021/05/05 00:36:20;;;;;;;3.25;2.15;;;6.70;99.90;;;;;;5028017;28;20201;-89
2021/05/05 00:38:47;;;;;;;4.22;1.80;;;6.70;99.90;;;;;;5015445;28;20758;-89
2021/05/05 00:41:14;;;;;;;2.95;2.00;;;6.70;99.90;;;;;;5014763;28;20252;-88
2021/05/05 00:43:41;;;;;;;3.83;2.40;;;6.70;99.90;;;;;;5014504;28;20250;-88
2021/05/05 00:46:08;;;;;;;4.72;3.47;;;6.70;99.90;;;;;;5014925;28;20193;-89
2021/05/05 00:48:35;;;;;;;4.22;2.72;;;6.70;99.90;;;;;;5014931;28;20266;-89
2021/05/05 00:51:02;;;;;;;3.42;1.90;;;6.70;99.90;;;;;;5014824;28;20192;-88
2021/05/05 00:53:30;;;;;;;4.07;2.10;;;6.60;99.90;;;;;;5013449;28;20185;-89
2021/05/05 00:55:56;;;;;;;2.45;1.60;;;6.50;99.90;;;;;;5015090;28;20252;-89
2021/05/05 00:58:23;;;;;;;8.80;2.00;;;6.50;99.90;;;;;;5015199;28;20202;-89
2021/05/05 01:00:50;;;;;;;4.10;2.28;;;6.40;99.90;;;;;;5014881;28;20186;-88
2021/05/05 01:03:18;;;;;;;2.63;1.80;;;6.40;99.90;;;;;;5015139;28;20189;-89
2021/05/05 01:05:45;;;;;;;8.85;2.00;;;6.40;99.90;;;;;;5013670;28;20222;-88
2021/05/05 01:08:13;;;;;;;2.60;1.60;;;6.50;99.90;;;;;;5014884;28;20679;-90
2021/05/05 01:10:39;;;;;;;3.45;1.88;;;6.50;99.90;;;;;;5014029;28;20190;-88
2021/05/05 01:13:05;;;;;;;4.22;2.17;;;6.50;99.90;;;;;;5016191;28;20197;-88
2021/05/05 01:15:31;;;;;;;4.50;2.35;;;6.50;99.90;;;;;;5019034;28;20200;-88
2021/05/05 01:17:58;;;;;;;3.65;2.50;;;6.50;99.90;;;;;;5022396;28;20221;-87
2021/05/05 01:20:29;;;;;;;3.17;2.33;;;6.50;99.90;;;;;;5017003;28;20178;-89
2021/05/05 01:22:57;;;;;;;4.18;2.50;;;6.40;99.90;;;;;;5018363;28;20192;-89
2021/05/05 01:25:23;;;;;;;3.05;1.90;;;6.30;99.90;;;;;;5017838;28;20300;-90
2021/05/05 01:27:50;;;;;;;3.20;2.38;;;6.30;99.90;;;;;;5018355;28;20206;-88
2021/05/05 01:30:18;;;;;;;2.90;2.53;;;6.20;99.90;;;;;;5017514;28;20584;-89
2021/05/05 01:32:45;;;;;;;2.85;1.70;;;6.10;99.90;;;;;;5018821;28;20541;-88
2021/05/05 01:35:14;;;;;;;8.75;2.60;;;6.20;99.90;;;;;;5018068;28;20185;-88
2021/05/05 01:37:43;;;;;;;2.55;1.73;;;6.20;99.90;;;;;;5017617;28;20189;-87
2021/05/05 01:40:13;;;;;;;3.58;2.13;;;6.20;99.90;;;;;;5017511;28;20268;-88
2021/05/05 01:42:39;;;;;;;2.95;2.00;;;6.20;99.90;;;;;;5017663;28;20196;-88
2021/05/05 01:45:07;;;;;;;3.22;2.30;;;6.20;99.90;;;;;;5017466;28;20605;-88
2021/05/05 01:47:34;;;;;;;4.50;3.00;;;6.10;99.90;;;;;;5017740;28;20182;-88
2021/05/05 01:50:01;;;;;;;5.68;3.00;;;6.00;99.90;;;;;;5017345;28;20204;-88
2021/05/05 01:52:27;;;;;;;4.75;2.38;;;6.00;99.90;;;;;;5017605;28;20189;-88
2021/05/05 01:54:54;;;;;;;3.80;3.00;;;6.10;99.90;;;;;;5017891;28;20239;-87
2021/05/05 01:57:23;;;;;;;3.90;1.90;;;6.10;99.90;;;;;;5017965;28;20272;-89
2021/05/05 01:59:52;;;;;;;3.60;2.53;;;6.10;99.90;;;;;;5018017;28;20197;-88
2021/05/05 02:02:19;;;;;;;3.35;2.00;;;6.10;99.90;;;;;;5017029;28;20185;-89
2021/05/05 02:04:45;;;;;;;5.50;3.10;;;6.10;99.90;;;;;;5017523;28;20201;-88
2021/05/05 02:07:16;;;;;;;3.28;2.40;;;6.20;99.90;;;;;;5017886;28;20239;-91
2021/05/05 02:09:45;;;;;;;4.55;2.90;;;6.20;99.90;;;;;;5017683;28;20197;-89
2021/05/05 02:12:13;;;;;;;4.55;3.13;;;6.30;99.90;;;;;;5017280;28;20196;-90
2021/05/05 02:14:42;;;;;;;2.70;2.40;;;6.30;99.90;;;;;;5029711;28;20193;-88
2021/05/05 02:17:09;;;;;;;6.10;3.03;;;6.20;99.90;;;;;;5025305;28;20353;-88
2021/05/05 02:19:35;;;;;;;5.30;2.92;;;6.10;99.90;;;;;;5017367;28;20584;-87
2021/05/05 02:22:02;;;;;;;6.65;3.20;;;6.10;99.90;;;;;;5016621;28;20185;-94
2021/05/05 02:24:29;;;;;;;4.68;2.83;;;6.00;99.90;;;;;;5015999;28;20210;-88
2021/05/05 02:26:55;;;;;;;5.30;4.13;;;6.00;99.90;;;;;;5018487;28;20190;-89
2021/05/05 02:29:21;;;;;;;5.35;3.72;;;6.00;99.90;;;;;;5019556;28;20197;-88
2021/05/05 02:31:50;;;;;;;7.70;4.53;;;5.90;99.90;;;;;;5021135;28;20204;-89
2021/05/05 02:34:16;;;;;;;4.53;4.05;;;5.90;99.90;;;;;;5023500;28;20197;-88
2021/05/05 02:36:43;;;;;;;5.68;4.25;;;5.90;99.90;;;;;;5022889;28;20186;-89
2021/05/05 02:39:10;;;;;;;5.15;3.55;;;5.90;99.90;;;;;;5019635;28;20220;-89
2021/05/05 02:41:38;;;;;;;5.55;3.70;;;5.90;99.90;;;;;;5019467;28;20573;-89
2021/05/05 02:44:06;;;;;;;5.13;2.90;;;5.90;99.90;;;;;;5019810;28;20185;-90
2021/05/05 02:46:32;;;;;;;7.20;3.85;;;5.90;99.90;;;;;;5023153;28;20200;-89
2021/05/05 02:48:59;;;;;;;4.20;2.85;;;5.90;99.90;;;;;;5022135;28;20198;-88
2021/05/05 02:51:26;;;;;;;5.97;3.83;;;5.80;99.90;;;;;;5017020;28;20192;-87
2021/05/05 02:53:53;;;;;;;4.32;3.05;;;5.80;99.90;;;;;;5016122;28;20198;-87
2021/05/05 02:56:19;;;;;;;4.63;4.10;;;5.70;99.90;;;;;;5016675;28;20185;-87
2021/05/05 02:58:46;;;;;;;3.97;3.35;;;5.70;99.90;;;;;;5016733;28;20197;-89
2021/05/05 03:01:15;;;;;;;5.65;3.30;;;5.60;99.90;;;;;;5017067;28;20243;-88
2021/05/05 03:03:42;;;;;;;6.95;2.97;;;5.60;99.90;;;;;;5014684;28;20190;-88
2021/05/05 03:06:10;;;;;;;4.78;4.28;;;5.60;99.90;;;;;;5016027;28;20221;-87
2021/05/05 03:08:36;;;;;;;8.95;3.85;;;5.60;99.90;;;;;;5016825;28;20207;-88
2021/05/05 03:11:04;;;;;;;3.65;2.72;;;5.60;99.90;;;;;;5016436;28;20190;-87
2021/05/05 03:13:32;;;;;;;6.35;4.38;;;5.70;99.90;;;;;;5016747;28;20185;-88
2021/05/05 03:16:00;;;;;;;4.03;3.38;;;5.70;99.90;;;;;;5020690;28;20253;-88
2021/05/05 03:18:27;;;;;;;5.80;3.55;;;5.70;99.90;;;;;;5018474;28;20262;-87
2021/05/05 03:20:58;;;;;;;8.23;3.65;;;5.80;99.90;;;;;;5019168;28;20206;-87
2021/05/05 03:23:28;;;;;;;5.15;3.55;;;5.70;99.90;;;;;;5016779;28;20193;-88
2021/05/05 03:25:57;;;;;;;4.65;3.83;;;5.70;99.90;;;;;;5016675;28;20249;-88
2021/05/05 03:28:23;;;;;;;9.77;4.40;;;5.60;99.90;;;;;;5017498;28;20268;-88
2021/05/05 03:30:50;;;;;;;5.00;4.50;;;5.60;99.90;;;;;;5017465;28;20195;-88
2021/05/05 03:33:17;;;;;;;6.50;4.30;;;5.60;99.90;;;;;;5028686;28;20268;-89
2021/05/05 03:35:44;;;;;;;6.82;5.82;;;5.60;99.90;;;;;;5037265;28;20189;-88
2021/05/05 03:38:11;;;;;;;7.25;5.13;;;5.50;99.90;;;;;;5038070;28;20240;-89
2021/05/05 03:40:38;;;;;;;5.68;5.05;;;5.40;99.90;;;;;;5037626;28;20227;-89
2021/05/05 03:43:05;;;;;;;7.05;6.35;;;5.30;99.90;;;;;;5032269;28;20275;-88
2021/05/05 03:45:32;;;;;;;6.82;5.35;;;5.30;99.90;;;;;;5025624;28;20231;-88
2021/05/05 03:47:58;;;;;;;8.32;7.53;;;5.30;99.90;;;;;;5025403;28;20207;-86
2021/05/05 03:50:25;;;;;;;8.65;7.15;;;5.30;99.90;;;;;;5025951;28;20251;-87
2021/05/05 03:52:52;;;;;;;7.18;5.88;;;5.20;99.90;;;;;;5026176;28;20217;-87
2021/05/05 03:55:19;;;;;;;9.48;6.22;;;5.20;99.90;;;;;;5021362;28;20697;-87
2021/05/05 03:57:47;;;;;;;6.45;5.85;;;5.20;99.90;;;;;;5016431;28;20276;-87
2021/05/05 04:00:15;;;;;;;9.05;7.10;;;5.30;99.90;;;;;;5015457;28;20201;-88
2021/05/05 04:02:42;;;;;;;9.45;6.50;;;5.40;99.90;;;;;;5014111;28;20552;-86
2021/05/05 04:05:10;;;;;;;10.15;5.85;;;5.40;99.90;;;;;;5016032;28;20299;-86
2021/05/05 04:07:36;;;;;;;9.05;7.57;;;5.50;99.90;;;;;;5023795;28;20193;-87
2021/05/05 04:10:03;;;;;;;8.43;7.18;;;5.50;99.90;;;;;;5022080;28;20192;-86
2021/05/05 04:12:30;;;;;;;8.90;7.47;;;5.60;99.90;;;;;;5023589;28;20256;-88
2021/05/05 04:14:57;;;;;;;7.63;5.55;;;5.60;99.90;;;;;;5015871;28;20656;-86
2021/05/05 04:17:25;;;;;;;9.73;7.35;;;5.60;99.90;;;;;;5015069;28;20200;-86
2021/05/05 04:19:53;;;;;;;9.48;6.38;;;5.70;99.90;;;;;;5014164;28;20220;-86
2021/05/05 04:22:19;;;;;;;15.63;7.10;;;5.70;99.90;;;;;;5014847;28;20196;-88
2021/05/05 04:24:46;;;;;;;9.57;8.50;;;5.70;99.90;;;;;;5014819;28;20211;-88
2021/05/05 04:27:13;;;;;;;8.10;6.95;;;5.70;99.90;;;;;;5015194;28;20193;-86
2021/05/05 04:29:39;;;;;;;7.53;6.72;;;5.80;99.90;;;;;;5024042;28;20186;-87
2021/05/05 04:32:08;;;;;;;9.73;7.88;;;5.80;99.90;;;;;;5022166;28;20236;-86
2021/05/05 04:34:35;;;;;;;12.02;8.52;;;5.90;99.90;;;;;;5017032;28;20208;-85
2021/05/05 04:37:03;;;;;;;10.40;9.13;;;5.80;99.90;;;;;;5013632;28;20213;-85
2021/05/05 04:39:29;;;;;;;11.65;8.27;;;5.60;99.90;;;;;;5013557;28;20229;-84
2021/05/05 04:41:56;;;;;;;10.27;8.98;;;5.50;99.90;;;;;;5012114;28;20359;-85
2021/05/05 04:44:22;;;;;;;11.60;8.65;;;5.40;99.90;;;;;;5013644;28;20216;-85
2021/05/05 04:46:48;;;;;;;9.57;8.57;;;5.40;99.90;;;;;;5014555;28;20192;-85
2021/05/05 04:49:15;;;;;;;9.95;8.80;;;5.40;99.90;;;;;;5017712;28;20193;-85
2021/05/05 04:51:42;;;;;;;12.52;9.35;;;5.40;99.90;;;;;;5017735;28;20196;-85
2021/05/05 04:54:09;;;;;;;12.93;10.10;;;5.40;99.90;;;;;;5017956;28;20190;-84
2021/05/05 04:56:35;;;;;;;13.80;8.90;;;5.50;99.90;;;;;;5017745;28;20193;-85
2021/05/05 04:59:03;;;;;;;15.27;9.85;;;5.50;99.90;;;;;;5017896;28;20185;-87
2021/05/05 05:01:30;;;;;;;14.45;11.85;;;5.60;99.90;;;;;;5023340;28;20194;-87
2021/05/05 05:03:56;;;;;;;12.20;10.40;;;5.60;99.90;;;;;;5026343;28;20189;-86
2021/05/05 05:06:24;;;;;;;14.00;12.48;;;5.70;99.90;;;;;;5029652;28;20193;-86
2021/05/05 05:08:50;;;;;;;13.43;9.48;;;5.70;99.90;;;;;;5027372;28;20196;-86
2021/05/05 05:11:17;;;;;;;13.05;11.70;;;5.70;99.90;;;;;;5035689;28;20193;-88
2021/05/05 05:13:43;;;;;;;17.05;10.93;;;5.80;99.90;;;;;;5040697;28;20281;-89
2021/05/05 05:18:51;;;;;;;13.23;11.20;;;5.80;99.90;;;;;;5039236;28;20340;-89
2021/05/05 05:21:18;;;;;;;10.82;9.15;;;5.80;99.90;;;;;;5038159;28;20253;-89
2021/05/05 05:23:46;;;;;;;12.02;10.85;;;5.80;99.90;;;;;;5036662;28;20180;-88
2021/05/05 05:26:14;;;;;;;16.58;11.27;;;5.80;99.90;;;;;;5027616;28;20223;-89
2021/05/05 05:28:41;;;;;;;14.70;11.63;;;5.80;99.90;;;;;;5019476;28;20190;-88
2021/05/05 05:31:08;;;;;;;12.05;10.27;;;5.90;99.90;;;;;;5020946;28;20181;-90
2021/05/05 05:33:34;;;;;;;13.10;11.02;;;5.90;99.90;;;;;;5025281;28;20223;-88
2021/05/05 05:36:03;;;;;;;12.63;11.25;;;6.00;99.90;;;;;;5020014;28;20245;-90
2021/05/05 05:38:30;;;;;;;13.05;11.30;;;6.10;99.90;;;;;;5023651;28;20197;-90
2021/05/05 05:40:58;;;;;;;10.70;8.00;;;6.10;99.90;;;;;;5021541;28;20312;-91
2021/05/05 05:43:24;;;;;;;14.93;9.88;;;6.20;99.90;;;;;;5020124;28;20223;-88
2021/05/05 05:45:51;;;;;;;11.40;9.85;;;6.10;99.90;;;;;;5020796;28;20457;-90
2021/05/05 05:48:18;;;;;;;9.68;7.60;;;6.00;99.90;;;;;;5019225;28;20225;-88
2021/05/05 05:50:44;;;;;;;11.57;8.55;;;6.10;99.90;;;;;;5019152;28;20553;-89
2021/05/05 05:53:11;;;;;;;5.85;4.22;;;6.00;99.90;;;;;;5020124;28;20264;-90
2021/05/05 05:55:41;;;;;;;6.78;4.28;;;5.90;99.90;;;;;;5017478;28;20224;-89
2021/05/05 05:58:09;;;;;;;10.27;3.97;;;5.70;99.90;;;;;;5003012;28;20185;-90
2021/05/05 06:00:36;;;;;;;6.30;5.03;;;5.60;99.90;;;;;;5013912;28;20239;-88
2021/05/05 06:03:14;;;;;;;8.55;4.05;;;5.40;99.90;;;;;;5024773;28;20266;-89
2021/05/05 06:05:40;;;;;;;7.10;5.05;;;5.40;99.90;;;;;;5018110;28;20299;-88
2021/05/05 06:08:07;;;;;;;9.25;5.57;;;5.30;99.90;;;;;;5016826;28;20206;-88
2021/05/05 06:10:33;;;;;;;7.72;5.63;;;5.30;99.90;;;;;;5016404;28;20188;-88
2021/05/05 06:13:00;;;;;;;5.32;4.82;;;5.20;99.90;;;;;;5015368;28;20199;-87
2021/05/05 06:15:27;;;;;;;8.25;6.53;;;5.20;99.90;;;;;;5015831;28;20209;-88
2021/05/05 06:17:53;;;;;;;13.05;6.55;;;5.10;99.90;;;;;;5000384;28;20288;-89
2021/05/05 06:20:20;;;;;;;7.18;6.45;;;5.00;99.90;;;;;;5016163;28;20217;-86
2021/05/05 06:22:48;;;;;;;14.77;9.05;;;5.00;99.90;;;;;;5018124;28;20200;-88
2021/05/05 06:25:15;;;;;;;12.93;10.57;;;5.00;99.90;;;;;;5020445;28;20307;-88
2021/05/05 06:27:41;;;;;;;13.88;9.88;;;5.00;99.90;;;;;;5020523;28;20197;-88
2021/05/05 06:30:10;;;;;;;17.05;11.63;;;5.00;99.90;;;;;;5019427;28;20271;-87
2021/05/05 06:32:38;;;;;;;16.35;12.40;;;5.00;99.90;;;;;;5020115;28;20192;-87
2021/05/05 06:35:05;;;;;;;13.25;11.93;;;5.00;99.90;;;;;;5020167;28;20239;-87
2021/05/05 06:37:32;;;;;;;18.75;13.35;;;5.00;99.90;;;;;;5007059;28;20192;-87
2021/05/05 06:40:00;;;;;;;16.58;13.30;;;5.00;99.90;;;;;;5017612;28;20234;-87
2021/05/05 06:42:26;;;;;;;21.90;16.63;;;5.00;99.90;;;;;;5015696;28;20251;-88
2021/05/05 06:44:53;;;;;;;14.23;12.65;;;5.00;99.90;;;;;;5015945;28;20294;-87
2021/05/05 06:47:19;;;;;;;18.15;15.02;;;5.10;99.90;;;;;;5013713;28;20202;-86
2021/05/05 06:49:47;;;;;;;26.00;14.55;;;5.10;99.90;;;;;;5012897;28;20196;-87
2021/05/05 06:52:13;;;;;;;15.20;13.70;;;5.10;99.90;;;;;;5017284;28;20246;-91
2021/05/05 06:54:41;;;;;;;15.10;11.90;;;4.80;99.90;;;;;;5022035;28;20199;-91
2021/05/05 06:57:07;;;;;;;11.77;9.60;;;4.50;99.90;;;;;;5021607;28;20243;-93
2021/05/05 06:59:36;;;;;;;11.80;10.60;;;4.50;99.90;;;;;;5021530;28;20184;-94
2021/05/05 07:02:03;;;;;;;11.48;10.00;;;4.50;99.90;;;;;;5022791;28;20188;-93
2021/05/05 07:04:29;;;;;;;9.30;7.35;;;4.50;99.90;;;;;;5021393;28;20227;-94
2021/05/05 07:06:57;;;;;;;9.25;7.43;;;4.50;99.90;;;;;;5020431;28;20211;-93
2021/05/05 07:09:23;;;;;;;6.85;6.25;;;4.50;99.90;;;;;;5019123;28;20631;-91
2021/05/05 07:11:50;;;;;;;6.72;5.13;;;4.50;99.90;;;;;;5029062;28;20226;-91
2021/05/05 07:14:16;;;;;;;8.32;6.32;;;4.50;99.90;;;;;;5024018;28;20214;-92
2021/05/05 07:16:43;;;;;;;7.20;6.18;;;4.50;99.90;;;;;;5025523;28;20281;-90
2021/05/05 07:19:09;;;;;;;7.43;6.63;;;4.60;99.90;;;;;;5015535;28;20192;-91
2021/05/05 07:21:36;;;;;;;8.80;7.28;;;4.60;99.90;;;;;;5017639;28;20192;-91
2021/05/05 07:24:04;;;;;;;10.00;8.95;;;4.50;99.90;;;;;;5018824;28;20236;-90
2021/05/05 07:26:30;;;;;;;9.18;7.57;;;4.50;99.90;;;;;;5018912;28;20212;-92
2021/05/05 07:28:57;;;;;;;9.40;8.45;;;4.60;99.90;;;;;;5019364;28;20204;-93
2021/05/05 07:31:24;;;;;;;9.68;7.30;;;4.60;99.90;;;;;;5020334;28;20207;-89
2021/05/05 07:33:51;;;;;;;12.63;9.05;;;4.70;99.90;;;;;;5027621;28;20196;-91
2021/05/05 07:36:21;;;;;;;12.70;10.20;;;4.90;99.90;;;;;;5027588;28;20227;-91
2021/05/05 07:38:59;;;;;;;10.80;9.70;;;5.00;99.90;;;;;;5029036;28;20263;-92
2021/05/05 07:42:13;;;;;;;9.57;8.57;;;5.10;99.90;;;;;;5024216;28;20208;-91
2021/05/05 07:45:07;;;;;;;9.18;7.65;;;5.30;99.90;;;;;;5036273;28;20204;-91
2021/05/05 07:47:36;;;;;;;7.75;6.95;;;5.30;99.90;;;;;;5037120;28;20180;-90
2021/05/05 07:50:04;;;;;;;8.30;6.32;;;5.40;99.90;;;;;;5031701;28;20190;-89
2021/05/05 07:52:31;;;;;;;8.52;7.63;;;5.40;99.90;;;;;;5038131;28;20252;-88
2021/05/05 07:54:57;;;;;;;10.80;9.65;;;5.50;99.90;;;;;;5037782;28;20192;-88
2021/05/05 07:57:24;;;;;;;7.90;7.13;;;5.60;99.90;;;;;;5034354;28;20193;-88
2021/05/05 07:59:51;;;;;;;9.55;8.50;;;5.70;99.90;;;;;;5037815;28;20192;-88
2021/05/05 08:02:17;;;;;;;9.10;7.88;;;5.70;99.90;;;;;;5036490;28;20232;-87
2021/05/05 08:04:49;;;;;;;9.05;8.15;;;5.70;99.90;;;;;;5037446;28;20193;-90
2021/05/05 08:07:16;;;;;;;10.15;7.85;;;5.70;99.90;;;;;;5041090;28;20178;-90
2021/05/05 08:09:43;;;;;;;10.82;9.10;;;5.80;99.90;;;;;;5041016;28;20196;-91
2021/05/05 08:12:11;;;;;;;10.88;9.07;;;5.90;99.90;;;;;;5037582;28;20180;-91
2021/05/05 08:14:42;;;;;;;9.25;8.32;;;5.90;99.90;;;;;;5037322;28;20198;-93
2021/05/05 08:17:11;;;;;;;9.00;7.53;;;6.10;99.90;;;;;;5037451;28;20185;-92
2021/05/05 08:19:37;;;;;;;13.65;8.30;;;6.10;99.90;;;;;;5051527;28;20200;-90
2021/05/05 08:22:04;;;;;;;8.70;7.60;;;6.30;99.90;;;;;;5040460;28;20185;-90
2021/05/05 08:24:31;;;;;;;9.13;7.65;;;6.30;99.90;;;;;;5047350;28;20197;-92
2021/05/05 08:26:58;;;;;;;9.52;8.48;;;6.30;99.90;;;;;;5052934;28;20226;-93
2021/05/05 08:29:28;;;;;;;8.75;7.90;;;6.30;99.90;;;;;;5035694;28;20277;-92
2021/05/05 08:32:00;;;;;;;6.55;4.78;;;6.30;99.90;;;;;;5049593;28;20215;-90
2021/05/05 08:34:33;;;;;;;6.03;5.40;;;6.40;99.90;;;;;;5035918;28;20194;-89
2021/05/05 08:37:00;;;;;;;4.57;4.13;;;6.50;99.90;;;;;;5018582;28;20213;-90
2021/05/05 08:39:27;;;;;;;3.60;3.05;;;6.50;99.90;;;;;;5019074;28;20193;-93
2021/05/05 08:41:57;;;;;;;4.03;3.55;;;6.50;99.90;;;;;;5029696;28;20221;-91
2021/05/05 08:44:25;;;;;;;4.53;3.85;;;6.40;99.90;;;;;;5025021;28;20196;-90
2021/05/05 08:46:53;;;;;;;3.45;3.15;;;6.30;99.90;;;;;;5042866;28;20200;-91
2021/05/05 08:49:20;;;;;;;4.70;4.20;;;6.30;99.90;;;;;;5037181;28;20184;-89
2021/05/05 08:51:49;;;;;;;4.57;3.90;;;6.30;99.90;;;;;;5021629;28;20190;-90
2021/05/05 08:54:16;;;;;;;6.20;5.13;;;6.40;99.90;;;;;;5023123;28;20275;-91
2021/05/05 08:56:45;;;;;;;7.28;5.60;;;6.50;99.90;;;;;;5022955;28;20256;-93
2021/05/05 08:59:13;;;;;;;6.40;5.00;;;6.60;99.90;;;;;;5026311;28;20196;-90
2021/05/05 09:01:40;;;;;;;7.88;5.55;;;6.90;99.90;;;;;;5026945;28;20209;-90
2021/05/05 09:04:07;;;;;;;5.63;4.38;;;7.10;99.90;;;;;;5034029;28;20189;-87
2021/05/05 09:06:46;;;;;;;6.70;5.20;;;7.40;99.90;;;;;;5021383;28;20217;-89
2021/05/05 09:09:29;;;;;;;5.55;4.15;;;7.30;99.90;;;;;;5021474;28;20197;-86
2021/05/05 09:11:56;;;;;;;8.80;4.50;;;7.40;99.90;;;;;;5019449;28;20192;-90
2021/05/05 09:14:22;;;;;;;5.50;3.63;;;7.40;99.90;;;;;;5027587;28;20182;-87
2021/05/05 09:16:49;;;;;;;10.18;4.47;;;7.50;99.90;;;;;;5032649;28;20196;-88
2021/05/05 09:19:15;;;;;;;9.63;4.90;;;7.50;99.90;;;;;;5024706;28;20589;-88
2021/05/05 09:21:44;;;;;;;4.70;3.47;;;7.70;99.90;;;;;;5021276;28;20257;-88
2021/05/05 09:24:19;;;;;;;6.50;4.03;;;7.60;99.90;;;;;;5018644;28;20305;-89
2021/05/05 09:26:46;;;;;;;6.65;5.55;;;7.50;99.90;;;;;;5020719;28;20216;-89
2021/05/05 09:29:13;;;;;;;7.13;4.25;;;7.50;99.90;;;;;;5019393;28;20192;-90
2021/05/05 09:31:41;;;;;;;5.25;4.22;;;7.70;99.90;;;;;;5019452;28;20185;-89
2021/05/05 09:34:10;;;;;;;8.88;5.40;;;7.70;99.90;;;;;;5016796;28;20186;-89
2021/05/05 09:36:37;;;;;;;6.75;3.90;;;7.70;99.90;;;;;;5021507;28;20208;-90
2021/05/05 09:39:07;;;;;;;4.70;3.90;;;7.70;99.90;;;;;;5019291;28;20188;-88
2021/05/05 09:41:35;;;;;;;5.82;4.15;;;7.70;99.90;;;;;;5018607;28;20221;-89
2021/05/05 09:44:03;;;;;;;6.85;3.80;;;7.70;99.90;;;;;;5021834;28;20200;-88
2021/05/05 09:46:40;;;;;;;5.70;4.05;;;7.70;99.90;;;;;;5018444;28;20221;-89
2021/05/05 09:49:27;;;;;;;8.45;4.65;;;7.60;99.90;;;;;;5031718;28;20552;-91
2021/05/05 09:51:58;;;;;;;7.35;4.35;;;7.40;99.90;;;;;;5036940;28;20253;-90
2021/05/05 09:54:31;;;;;;;5.00;4.35;;;7.20;99.90;;;;;;5021247;28;20192;-93
2021/05/05 09:57:17;;;;;;;10.40;5.25;;;7.30;99.90;;;;;;5017690;28;20244;-88
2021/05/05 09:59:59;;;;;;;8.05;5.15;;;7.50;99.90;;;;;;5017471;28;20194;-89
2021/05/05 10:02:26;;;;;;;7.30;3.80;;;7.90;99.90;;;;;;5017403;28;20244;-89
2021/05/05 10:05:01;;;;;;;6.28;5.25;;;8.20;99.90;;;;;;5017293;28;20347;-88
2021/05/05 10:07:29;;;;;;;6.25;5.65;;;7.90;99.90;;;;;;5017138;28;20185;-89
2021/05/05 10:09:56;;;;;;;8.75;5.85;;;7.80;99.90;;;;;;5015331;28;20189;-88
2021/05/05 10:12:24;;;;;;;6.40;4.20;;;7.90;99.90;;;;;;5015695;28;20197;-87
2021/05/05 10:14:52;;;;;;;4.10;3.05;;;8.10;99.90;;;;;;5015162;28;20275;-87
2021/05/05 10:17:19;;;;;;;7.88;4.30;;;8.10;99.90;;;;;;5016258;28;20189;-87
2021/05/05 10:19:48;;;;;;;5.55;3.80;;;8.00;99.90;;;;;;5015819;28;20633;-90
2021/05/05 10:22:15;;;;;;;5.47;3.60;;;7.90;99.90;;;;;;5015897;28;20189;-86
2021/05/05 10:24:46;;;;;;;6.78;3.90;;;8.00;99.90;;;;;;5015629;28;20192;-87
2021/05/05 10:27:15;;;;;;;4.35;2.90;;;8.20;99.90;;;;;;5019687;28;20200;-87
2021/05/05 10:29:44;;;;;;;4.00;2.78;;;8.50;99.90;;;;;;5017162;28;20197;-87
2021/05/05 10:32:13;;;;;;;8.27;3.35;;;8.80;99.90;;;;;;5015703;28;20189;-87
2021/05/05 10:34:42;;;;;;;7.30;2.67;;;9.00;99.90;;;;;;5015527;28;20193;-88
2021/05/05 10:37:09;;;;;;;5.18;3.13;;;9.30;99.90;;;;;;5015284;28;20194;-88
2021/05/05 10:39:40;;;;;;;3.10;2.60;;;9.30;99.90;;;;;;5011472;28;20190;-88
2021/05/05 10:42:16;;;;;;;4.70;3.42;;;9.00;99.90;;;;;;5018280;28;20216;-88
2021/05/05 10:44:50;;;;;;;7.35;3.40;;;9.10;99.90;;;;;;5014324;28;20189;-89
2021/05/05 10:47:27;;;;;;;5.47;3.70;;;9.40;99.90;;;;;;5016675;28;20196;-87
2021/05/05 10:50:06;;;;;;;5.00;2.70;;;9.40;99.90;;;;;;5016799;28;20192;-88
2021/05/05 10:53:01;;;;;;;2.83;1.88;;;9.40;99.90;;;;;;5009694;28;20229;-87
2021/05/05 10:55:42;;;;;;;4.63;1.80;;;9.10;99.90;;;;;;5035835;28;20205;-88
2021/05/05 10:58:12;;;;;;;3.20;1.85;;;9.10;99.90;;;;;;5038373;28;20170;-88
2021/05/05 11:01:02;;;;;;;5.70;2.25;;;9.30;99.90;;;;;;5037966;28;20220;-87
2021/05/05 11:03:55;;;;;;;4.30;2.58;;;9.10;99.90;;;;;;5033289;28;20196;-87
2021/05/05 11:06:48;;;;;;;3.60;2.40;;;9.00;99.90;;;;;;5022839;28;20209;-87
2021/05/05 11:09:44;;;;;;;7.07;2.42;;;9.00;99.90;;;;;;5024477;28;20189;-89
2021/05/05 11:12:45;;;;;;;5.07;2.53;;;8.70;99.90;;;;;;5024868;28;20723;-90
2021/05/05 11:15:14;;;;;;;5.35;2.83;;;8.60;99.90;;;;;;5020305;28;20188;-88
2021/05/05 11:17:41;;;;;;;5.15;3.03;;;8.60;99.90;;;;;;5015283;28;20555;-89
2021/05/05 11:20:09;;;;;;;9.98;3.45;;;8.70;99.90;;;;;;5016337;28;20189;-88
2021/05/05 11:22:57;;;;;;;3.90;3.50;;;8.70;99.90;;;;;;5015515;28;20239;-87
2021/05/05 11:25:25;;;;;;;7.03;3.95;;;8.50;99.90;;;;;;5010883;28;20224;-88
2021/05/05 11:27:57;;;;;;;6.18;5.40;;;7.90;99.90;;;;;;5015931;28;20217;-89
2021/05/05 11:30:40;;;;;;;8.98;5.10;;;7.40;99.90;;;;;;5016484;28;20189;-90
2021/05/05 11:33:11;;;;;;;5.45;3.60;;;7.20;99.90;;;;;;4996780;28;20183;-88
2021/05/05 11:35:39;;;;;;;10.65;5.13;;;7.10;99.90;;;;;;5002285;28;20652;-87
2021/05/05 11:38:31;;;;;;;4.75;3.45;;;7.00;99.90;;;;;;5015305;28;20687;-88
2021/05/05 11:41:02;;;;;;;3.83;2.33;;;6.60;99.90;;;;;;5013718;28;20221;-87
2021/05/05 11:43:31;;;;;;;6.38;4.18;;;6.20;99.90;;;;;;5014743;28;20573;-86
2021/05/05 11:46:02;;;;;;;3.85;3.50;;;6.00;99.90;;;;;;5014657;28;20295;-87
2021/05/05 11:48:47;;;;;;;4.88;3.88;;;6.00;99.90;;;;;;5015305;28;20281;-87
2021/05/05 11:51:20;;;;;;;3.85;3.35;;;6.00;99.90;;;;;;5014342;28;20231;-87
2021/05/05 11:53:46;;;;;;;7.00;3.15;;;6.00;99.90;;;;;;5014674;28;20615;-86
2021/05/05 11:56:21;;;;;;;3.67;2.40;;;6.00;99.90;;;;;;5013858;28;20729;-89
2021/05/05 11:58:59;;;;;;;4.15;2.63;;;5.90;99.90;;;;;;5014543;28;20199;-87
2021/05/05 12:01:31;;;;;;;3.40;2.50;;;5.90;99.90;;;;;;5014177;28;20191;-86
2021/05/05 12:04:20;;;;;;;2.47;1.85;;;5.90;99.90;;;;;;5014091;28;20197;-86
2021/05/05 12:06:55;;;;;;;3.30;2.15;;;5.90;99.90;;;;;;5013649;28;20272;-86
2021/05/05 12:09:23;;;;;;;3.75;2.13;;;6.20;99.90;;;;;;5013957;28;20188;-89
2021/05/05 12:11:50;;;;;;;3.90;1.70;;;6.50;99.90;;;;;;5014330;28;20193;-85
2021/05/05 12:14:28;;;;;;;5.35;1.42;;;6.80;99.90;;;;;;5012956;28;20193;-86
2021/05/05 12:16:57;;;;;;;6.75;2.60;;;7.20;99.90;;;;;;5014519;28;20698;-88
2021/05/05 12:19:25;;;;;;;6.63;2.50;;;7.50;99.90;;;;;;5014319;28;20280;-87
2021/05/05 12:21:51;;;;;;;5.22;2.45;;;7.80;99.90;;;;;;5014198;28;20248;-90
2021/05/05 12:24:18;;;;;;;5.28;1.98;;;8.20;99.90;;;;;;5016840;28;20186;-90
2021/05/05 12:26:44;;;;;;;4.32;2.00;;;8.60;99.90;;;;;;5014380;28;20309;-88
2021/05/05 12:29:15;;;;;;;4.22;1.83;;;8.90;99.90;;;;;;5017061;28;20190;-91
2021/05/05 12:31:44;;;;;;;8.27;3.42;;;9.50;99.90;;;;;;5010001;28;20630;-87
2021/05/05 12:34:11;;;;;;;7.07;2.17;;;10.30;99.90;;;;;;5010761;28;20189;-85
2021/05/05 12:36:42;;;;;;;5.22;2.38;;;10.70;99.90;;;;;;5013575;28;20182;-86
2021/05/05 12:39:13;;;;;;;3.15;1.90;;;10.30;99.90;;;;;;5014509;28;20296;-87
2021/05/05 12:41:41;;;;;;;8.18;2.63;;;9.30;99.90;;;;;;4995872;28;20253;-87
2021/05/05 12:44:09;;;;;;;6.93;2.88;;;8.90;99.90;;;;;;5012688;28;20194;-87
2021/05/05 12:46:54;;;;;;;3.67;2.70;;;8.70;99.90;;;;;;5015702;28;20214;-88
2021/05/05 12:49:25;;;;;;;4.47;3.50;;;8.30;99.90;;;;;;5016212;28;20228;-88
2021/05/05 12:51:52;;;;;;;3.67;2.72;;;8.10;99.90;;;;;;5014983;28;20197;-90
2021/05/05 12:54:24;;;;;;;6.57;2.78;;;7.70;99.90;;;;;;5015845;28;20185;-92
2021/05/05 12:56:51;;;;;;;8.02;2.63;;;6.80;99.90;;;;;;5023995;28;20205;-92
2021/05/05 12:59:19;;;;;;;3.40;2.17;;;5.50;99.90;;;;;;5031179;28;20193;-91
2021/05/05 13:01:48;;;;;;;3.70;2.03;;;4.90;99.90;;;;;;5042453;28;20197;-91
2021/05/05 13:04:24;;;;;;;4.30;2.33;;;4.50;99.90;;;;;;5028709;28;20189;-91
2021/05/05 13:06:52;;;;;;;2.92;2.10;;;4.50;99.90;;;;;;5037544;28;20220;-92